sensor_id;sensor_type;location;lat;lon;timestamp;P1;durP1;ratioP1;P2;durP2;ratioP2
60867;SDS011;46702;48.370;10.794;2023-04-25T00:00:33;2.72;;;2.53;;
60867;SDS011;46702;48.370;10.794;2023-04-25T00:03:04;2.58;;;2.22;;
60867;SDS011;46702;48.370;10.794;2023-04-25T00:05:43;4.78;;;2.70;;
60867;SDS011;46702;48.370;10.794;2023-04-25T00:08:09;3.22;;;2.30;;
60867;SDS011;46702;48.370;10.794;2023-04-25T00:10:34;1.92;;;1.80;;
60867;SDS011;46702;48.370;10.794;2023-04-25T00:13:00;2.67;;;2.00;;
60867;SDS011;46702;48.370;10.794;2023-04-25T00:15:27;4.32;;;2.33;;
60867;SDS011;46702;48.370;10.794;2023-04-25T00:17:55;4.88;;;2.30;;
60867;SDS011;46702;48.370;10.794;2023-04-25T00:20:22;4.07;;;2.65;;
60867;SDS011;46702;48.370;10.794;2023-04-25T00:22:48;4.68;;;2.30;;
60867;SDS011;46702;48.370;10.794;2023-04-25T00:25:14;3.97;;;2.05;;
60867;SDS011;46702;48.370;10.794;2023-04-25T00:27:40;3.10;;;2.40;;
60867;SDS011;46702;48.370;10.794;2023-04-25T00:30:07;2.22;;;1.90;;
60867;SDS011;46702;48.370;10.794;2023-04-25T00:32:33;2.22;;;2.05;;
60867;SDS011;46702;48.370;10.794;2023-04-25T00:34:59;2.53;;;2.25;;
60867;SDS011;46702;48.370;10.794;2023-04-25T00:37:31;3.28;;;1.90;;
60867;SDS011;46702;48.370;10.794;2023-04-25T00:39:57;2.88;;;2.10;;
60867;SDS011;46702;48.370;10.794;2023-04-25T00:42:23;2.40;;;2.20;;
60867;SDS011;46702;48.370;10.794;2023-04-25T00:44:51;2.97;;;2.17;;
60867;SDS011;46702;48.370;10.794;2023-04-25T00:47:17;2.67;;;2.30;;
60867;SDS011;46702;48.370;10.794;2023-04-25T00:49:43;4.03;;;2.42;;
60867;SDS011;46702;48.370;10.794;2023-04-25T00:52:10;3.30;;;1.88;;
60867;SDS011;46702;48.370;10.794;2023-04-25T00:54:36;3.03;;;2.20;;
60867;SDS011;46702;48.370;10.794;2023-04-25T00:57:02;3.75;;;2.70;;
60867;SDS011;46702;48.370;10.794;2023-04-25T00:59:28;4.03;;;1.90;;
60867;SDS011;46702;48.370;10.794;2023-04-25T01:01:55;2.83;;;1.90;;
60867;SDS011;46702;48.370;10.794;2023-04-25T01:04:21;2.80;;;2.00;;
60867;SDS011;46702;48.370;10.794;2023-04-25T01:06:55;2.42;;;2.22;;
60867;SDS011;46702;48.370;10.794;2023-04-25T01:09:24;2.88;;;2.30;;
60867;SDS011;46702;48.370;10.794;2023-04-25T01:11:50;2.42;;;2.20;;
60867;SDS011;46702;48.370;10.794;2023-04-25T01:14:16;2.45;;;2.25;;
60867;SDS011;46702;48.370;10.794;2023-04-25T01:16:42;2.53;;;2.15;;
60867;SDS011;46702;48.370;10.794;2023-04-25T01:19:09;2.75;;;2.15;;
60867;SDS011;46702;48.370;10.794;2023-04-25T01:21:38;3.38;;;2.50;;
60867;SDS011;46702;48.370;10.794;2023-04-25T01:24:05;2.58;;;2.00;;
60867;SDS011;46702;48.370;10.794;2023-04-25T01:26:31;2.08;;;1.88;;
60867;SDS011;46702;48.370;10.794;2023-04-25T01:28:58;3.45;;;2.13;;
60867;SDS011;46702;48.370;10.794;2023-04-25T01:31:24;2.58;;;2.35;;
60867;SDS011;46702;48.370;10.794;2023-04-25T01:33:51;3.15;;;2.22;;
60867;SDS011;46702;48.370;10.794;2023-04-25T01:36:17;2.42;;;2.22;;
60867;SDS011;46702;48.370;10.794;2023-04-25T01:38:43;2.40;;;2.20;;
60867;SDS011;46702;48.370;10.794;2023-04-25T01:41:09;2.00;;;1.90;;
60867;SDS011;46702;48.370;10.794;2023-04-25T01:43:35;3.80;;;2.65;;
60867;SDS011;46702;48.370;10.794;2023-04-25T01:46:00;3.55;;;2.83;;
60867;SDS011;46702;48.370;10.794;2023-04-25T01:48:26;4.80;;;2.33;;
60867;SDS011;46702;48.370;10.794;2023-04-25T01:50:52;3.13;;;2.47;;
60867;SDS011;46702;48.370;10.794;2023-04-25T01:53:17;6.15;;;2.92;;
60867;SDS011;46702;48.370;10.794;2023-04-25T01:55:43;2.60;;;1.98;;
60867;SDS011;46702;48.370;10.794;2023-04-25T01:58:09;5.25;;;2.90;;
60867;SDS011;46702;48.370;10.794;2023-04-25T02:00:37;2.65;;;2.17;;
60867;SDS011;46702;48.370;10.794;2023-04-25T02:03:03;2.40;;;2.20;;
60867;SDS011;46702;48.370;10.794;2023-04-25T02:05:39;2.30;;;2.10;;
60867;SDS011;46702;48.370;10.794;2023-04-25T02:08:05;2.22;;;1.95;;
60867;SDS011;46702;48.370;10.794;2023-04-25T02:10:33;2.20;;;2.00;;
60867;SDS011;46702;48.370;10.794;2023-04-25T02:12:59;2.47;;;2.10;;
60867;SDS011;46702;48.370;10.794;2023-04-25T02:15:25;2.45;;;2.20;;
60867;SDS011;46702;48.370;10.794;2023-04-25T02:17:51;4.00;;;2.72;;
60867;SDS011;46702;48.370;10.794;2023-04-25T02:20:22;3.10;;;2.33;;
60867;SDS011;46702;48.370;10.794;2023-04-25T02:22:49;3.17;;;2.85;;
60867;SDS011;46702;48.370;10.794;2023-04-25T02:25:16;2.70;;;2.50;;
60867;SDS011;46702;48.370;10.794;2023-04-25T02:27:42;3.33;;;2.78;;
60867;SDS011;46702;48.370;10.794;2023-04-25T02:30:08;5.22;;;2.97;;
60867;SDS011;46702;48.370;10.794;2023-04-25T02:32:34;2.85;;;2.63;;
60867;SDS011;46702;48.370;10.794;2023-04-25T02:35:00;3.45;;;2.67;;
60867;SDS011;46702;48.370;10.794;2023-04-25T02:37:29;4.07;;;2.78;;
60867;SDS011;46702;48.370;10.794;2023-04-25T02:39:55;3.47;;;2.78;;
60867;SDS011;46702;48.370;10.794;2023-04-25T02:42:21;3.88;;;3.00;;
60867;SDS011;46702;48.370;10.794;2023-04-25T02:44:47;5.13;;;3.00;;
60867;SDS011;46702;48.370;10.794;2023-04-25T02:47:13;4.00;;;3.47;;
60867;SDS011;46702;48.370;10.794;2023-04-25T02:49:39;4.25;;;3.00;;
60867;SDS011;46702;48.370;10.794;2023-04-25T02:52:04;5.68;;;3.38;;
60867;SDS011;46702;48.370;10.794;2023-04-25T02:54:30;3.17;;;2.85;;
60867;SDS011;46702;48.370;10.794;2023-04-25T02:56:56;3.30;;;2.90;;
60867;SDS011;46702;48.370;10.794;2023-04-25T02:59:21;3.65;;;2.95;;
60867;SDS011;46702;48.370;10.794;2023-04-25T03:01:47;3.58;;;3.25;;
60867;SDS011;46702;48.370;10.794;2023-04-25T03:04:12;3.72;;;3.40;;
60867;SDS011;46702;48.370;10.794;2023-04-25T03:06:38;3.72;;;3.33;;
60867;SDS011;46702;48.370;10.794;2023-04-25T03:09:04;4.40;;;3.00;;
60867;SDS011;46702;48.370;10.794;2023-04-25T03:11:30;3.10;;;2.90;;
60867;SDS011;46702;48.370;10.794;2023-04-25T03:13:55;3.90;;;2.92;;
60867;SDS011;46702;48.370;10.794;2023-04-25T03:16:21;3.45;;;3.05;;
60867;SDS011;46702;48.370;10.794;2023-04-25T03:18:47;5.75;;;3.55;;
60867;SDS011;46702;48.370;10.794;2023-04-25T03:21:14;4.35;;;3.22;;
60867;SDS011;46702;48.370;10.794;2023-04-25T03:23:40;4.30;;;3.05;;
60867;SDS011;46702;48.370;10.794;2023-04-25T03:26:05;6.53;;;3.60;;
60867;SDS011;46702;48.370;10.794;2023-04-25T03:28:31;4.82;;;3.17;;
60867;SDS011;46702;48.370;10.794;2023-04-25T03:30:57;3.90;;;3.08;;
60867;SDS011;46702;48.370;10.794;2023-04-25T03:33:23;4.78;;;3.33;;
60867;SDS011;46702;48.370;10.794;2023-04-25T03:35:48;4.05;;;2.80;;
60867;SDS011;46702;48.370;10.794;2023-04-25T03:38:15;4.47;;;2.83;;
60867;SDS011;46702;48.370;10.794;2023-04-25T03:40:40;4.65;;;3.25;;
60867;SDS011;46702;48.370;10.794;2023-04-25T03:43:06;4.47;;;3.03;;
60867;SDS011;46702;48.370;10.794;2023-04-25T03:45:32;3.88;;;3.30;;
60867;SDS011;46702;48.370;10.794;2023-04-25T03:47:58;3.10;;;2.80;;
60867;SDS011;46702;48.370;10.794;2023-04-25T03:50:23;4.40;;;2.90;;
60867;SDS011;46702;48.370;10.794;2023-04-25T03:52:49;5.35;;;3.50;;
60867;SDS011;46702;48.370;10.794;2023-04-25T03:55:15;3.70;;;2.50;;
60867;SDS011;46702;48.370;10.794;2023-04-25T03:57:40;3.33;;;2.83;;
60867;SDS011;46702;48.370;10.794;2023-04-25T04:00:06;3.53;;;2.95;;
60867;SDS011;46702;48.370;10.794;2023-04-25T04:02:32;3.65;;;2.90;;
60867;SDS011;46702;48.370;10.794;2023-04-25T04:04:59;5.97;;;2.75;;
60867;SDS011;46702;48.370;10.794;2023-04-25T04:07:25;2.70;;;2.50;;
60867;SDS011;46702;48.370;10.794;2023-04-25T04:09:54;2.92;;;2.53;;
60867;SDS011;46702;48.370;10.794;2023-04-25T04:12:19;5.82;;;2.70;;
60867;SDS011;46702;48.370;10.794;2023-04-25T04:14:45;2.70;;;2.50;;
60867;SDS011;46702;48.370;10.794;2023-04-25T04:17:11;4.22;;;2.50;;
60867;SDS011;46702;48.370;10.794;2023-04-25T04:19:36;3.65;;;2.90;;
60867;SDS011;46702;48.370;10.794;2023-04-25T04:22:02;3.10;;;2.80;;
60867;SDS011;46702;48.370;10.794;2023-04-25T04:24:28;3.60;;;2.35;;
60867;SDS011;46702;48.370;10.794;2023-04-25T04:26:56;4.32;;;2.97;;
60867;SDS011;46702;48.370;10.794;2023-04-25T04:29:22;3.72;;;2.55;;
60867;SDS011;46702;48.370;10.794;2023-04-25T04:31:51;3.20;;;2.47;;
60867;SDS011;46702;48.370;10.794;2023-04-25T04:34:17;2.88;;;2.58;;
60867;SDS011;46702;48.370;10.794;2023-04-25T04:36:44;4.80;;;2.88;;
60867;SDS011;46702;48.370;10.794;2023-04-25T04:39:11;3.88;;;2.83;;
60867;SDS011;46702;48.370;10.794;2023-04-25T04:41:37;3.05;;;2.42;;
60867;SDS011;46702;48.370;10.794;2023-04-25T04:44:03;3.38;;;2.60;;
60867;SDS011;46702;48.370;10.794;2023-04-25T04:46:29;4.57;;;3.10;;
60867;SDS011;46702;48.370;10.794;2023-04-25T04:49:02;4.80;;;2.90;;
60867;SDS011;46702;48.370;10.794;2023-04-25T04:51:29;3.78;;;2.72;;
60867;SDS011;46702;48.370;10.794;2023-04-25T04:53:56;3.70;;;3.08;;
60867;SDS011;46702;48.370;10.794;2023-04-25T04:56:26;3.92;;;2.67;;
60867;SDS011;46702;48.370;10.794;2023-04-25T04:58:54;4.32;;;3.08;;
60867;SDS011;46702;48.370;10.794;2023-04-25T05:01:20;3.70;;;3.03;;
60867;SDS011;46702;48.370;10.794;2023-04-25T05:03:46;4.13;;;3.08;;
60867;SDS011;46702;48.370;10.794;2023-04-25T05:06:12;4.68;;;2.90;;
60867;SDS011;46702;48.370;10.794;2023-04-25T05:08:38;3.38;;;2.78;;
60867;SDS011;46702;48.370;10.794;2023-04-25T05:11:04;4.25;;;2.78;;
60867;SDS011;46702;48.370;10.794;2023-04-25T05:13:29;3.80;;;2.90;;
60867;SDS011;46702;48.370;10.794;2023-04-25T05:15:55;5.03;;;2.55;;
60867;SDS011;46702;48.370;10.794;2023-04-25T05:18:22;3.15;;;2.55;;
60867;SDS011;46702;48.370;10.794;2023-04-25T05:20:51;4.32;;;2.38;;
60867;SDS011;46702;48.370;10.794;2023-04-25T05:23:18;3.15;;;2.58;;
60867;SDS011;46702;48.370;10.794;2023-04-25T05:25:44;2.42;;;2.20;;
60867;SDS011;46702;48.370;10.794;2023-04-25T05:28:10;4.55;;;2.22;;
60867;SDS011;46702;48.370;10.794;2023-04-25T05:30:37;2.17;;;2.03;;
60867;SDS011;46702;48.370;10.794;2023-04-25T05:33:03;3.65;;;2.20;;
60867;SDS011;46702;48.370;10.794;2023-04-25T05:35:29;3.72;;;2.25;;
60867;SDS011;46702;48.370;10.794;2023-04-25T05:37:58;3.25;;;2.33;;
60867;SDS011;46702;48.370;10.794;2023-04-25T05:40:24;4.43;;;2.97;;
60867;SDS011;46702;48.370;10.794;2023-04-25T05:42:50;2.67;;;2.40;;
60867;SDS011;46702;48.370;10.794;2023-04-25T05:45:16;3.28;;;2.58;;
60867;SDS011;46702;48.370;10.794;2023-04-25T05:47:42;4.63;;;2.70;;
60867;SDS011;46702;48.370;10.794;2023-04-25T05:50:08;2.20;;;1.98;;
60867;SDS011;46702;48.370;10.794;2023-04-25T05:52:34;2.70;;;2.50;;
60867;SDS011;46702;48.370;10.794;2023-04-25T05:54:59;4.80;;;2.95;;
60867;SDS011;46702;48.370;10.794;2023-04-25T05:57:26;3.97;;;2.40;;
60867;SDS011;46702;48.370;10.794;2023-04-25T05:59:52;2.45;;;2.00;;
60867;SDS011;46702;48.370;10.794;2023-04-25T06:02:18;7.20;;;4.15;;
60867;SDS011;46702;48.370;10.794;2023-04-25T06:04:45;5.32;;;2.45;;
60867;SDS011;46702;48.370;10.794;2023-04-25T06:07:11;2.92;;;2.63;;
60867;SDS011;46702;48.370;10.794;2023-04-25T06:09:38;4.05;;;2.53;;
60867;SDS011;46702;48.370;10.794;2023-04-25T06:12:05;4.95;;;2.30;;
60867;SDS011;46702;48.370;10.794;2023-04-25T06:14:31;3.85;;;2.78;;
60867;SDS011;46702;48.370;10.794;2023-04-25T06:16:58;3.80;;;2.28;;
60867;SDS011;46702;48.370;10.794;2023-04-25T06:19:24;2.35;;;1.85;;
60867;SDS011;46702;48.370;10.794;2023-04-25T06:21:49;4.85;;;2.42;;
60867;SDS011;46702;48.370;10.794;2023-04-25T06:24:15;2.28;;;2.08;;
60867;SDS011;46702;48.370;10.794;2023-04-25T06:26:41;3.35;;;2.40;;
60867;SDS011;46702;48.370;10.794;2023-04-25T06:29:07;3.03;;;1.75;;
60867;SDS011;46702;48.370;10.794;2023-04-25T06:31:32;3.50;;;2.35;;
60867;SDS011;46702;48.370;10.794;2023-04-25T06:33:58;3.45;;;2.20;;
60867;SDS011;46702;48.370;10.794;2023-04-25T06:36:24;4.13;;;2.47;;
60867;SDS011;46702;48.370;10.794;2023-04-25T06:38:52;3.63;;;2.25;;
60867;SDS011;46702;48.370;10.794;2023-04-25T06:41:19;1.50;;;1.40;;
60867;SDS011;46702;48.370;10.794;2023-04-25T06:43:45;3.75;;;2.30;;
60867;SDS011;46702;48.370;10.794;2023-04-25T06:46:11;2.40;;;2.22;;
60867;SDS011;46702;48.370;10.794;2023-04-25T06:48:37;3.00;;;2.30;;
60867;SDS011;46702;48.370;10.794;2023-04-25T06:51:02;2.53;;;2.08;;
60867;SDS011;46702;48.370;10.794;2023-04-25T06:53:28;3.33;;;2.05;;
60867;SDS011;46702;48.370;10.794;2023-04-25T06:55:54;5.53;;;2.50;;
60867;SDS011;46702;48.370;10.794;2023-04-25T06:58:20;2.40;;;2.20;;
60867;SDS011;46702;48.370;10.794;2023-04-25T07:00:46;2.08;;;1.98;;
60867;SDS011;46702;48.370;10.794;2023-04-25T07:03:11;4.55;;;2.10;;
60867;SDS011;46702;48.370;10.794;2023-04-25T07:05:37;4.13;;;2.15;;
60867;SDS011;46702;48.370;10.794;2023-04-25T07:08:03;2.55;;;2.30;;
60867;SDS011;46702;48.370;10.794;2023-04-25T07:10:29;3.13;;;2.80;;
60867;SDS011;46702;48.370;10.794;2023-04-25T07:12:55;5.32;;;2.55;;
60867;SDS011;46702;48.370;10.794;2023-04-25T07:15:21;3.28;;;2.10;;
60867;SDS011;46702;48.370;10.794;2023-04-25T07:17:47;4.82;;;2.30;;
60867;SDS011;46702;48.370;10.794;2023-04-25T07:22:42;3.28;;;1.85;;
60867;SDS011;46702;48.370;10.794;2023-04-25T07:25:16;3.70;;;2.33;;
60867;SDS011;46702;48.370;10.794;2023-04-25T07:27:45;2.45;;;1.95;;
60867;SDS011;46702;48.370;10.794;2023-04-25T07:30:11;3.45;;;1.65;;
60867;SDS011;46702;48.370;10.794;2023-04-25T07:32:37;1.50;;;1.40;;
60867;SDS011;46702;48.370;10.794;2023-04-25T07:35:13;3.65;;;2.13;;
60867;SDS011;46702;48.370;10.794;2023-04-25T07:37:40;1.77;;;1.67;;
60867;SDS011;46702;48.370;10.794;2023-04-25T07:40:05;2.38;;;2.17;;
60867;SDS011;46702;48.370;10.794;2023-04-25T07:42:32;2.20;;;2.00;;
60867;SDS011;46702;48.370;10.794;2023-04-25T07:44:58;2.92;;;1.80;;
60867;SDS011;46702;48.370;10.794;2023-04-25T07:47:25;2.55;;;2.13;;
60867;SDS011;46702;48.370;10.794;2023-04-25T07:49:50;2.05;;;1.88;;
60867;SDS011;46702;48.370;10.794;2023-04-25T07:52:16;2.00;;;1.58;;
60867;SDS011;46702;48.370;10.794;2023-04-25T07:54:42;2.72;;;1.60;;
60867;SDS011;46702;48.370;10.794;2023-04-25T07:57:07;2.88;;;1.80;;
60867;SDS011;46702;48.370;10.794;2023-04-25T07:59:33;2.75;;;1.83;;
60867;SDS011;46702;48.370;10.794;2023-04-25T08:01:59;3.25;;;2.15;;
60867;SDS011;46702;48.370;10.794;2023-04-25T08:04:25;2.08;;;1.60;;
60867;SDS011;46702;48.370;10.794;2023-04-25T08:06:51;1.60;;;1.50;;
60867;SDS011;46702;48.370;10.794;2023-04-25T08:09:18;1.40;;;1.30;;
60867;SDS011;46702;48.370;10.794;2023-04-25T08:11:44;2.35;;;1.80;;
60867;SDS011;46702;48.370;10.794;2023-04-25T08:14:10;2.20;;;1.70;;
60867;SDS011;46702;48.370;10.794;2023-04-25T08:16:37;2.30;;;1.40;;
60867;SDS011;46702;48.370;10.794;2023-04-25T08:19:03;3.70;;;2.13;;
60867;SDS011;46702;48.370;10.794;2023-04-25T08:21:28;2.20;;;2.00;;
60867;SDS011;46702;48.370;10.794;2023-04-25T08:23:54;2.63;;;1.58;;
60867;SDS011;46702;48.370;10.794;2023-04-25T08:26:20;1.38;;;1.27;;
60867;SDS011;46702;48.370;10.794;2023-04-25T08:28:46;2.15;;;1.80;;
60867;SDS011;46702;48.370;10.794;2023-04-25T08:31:11;1.90;;;1.80;;
60867;SDS011;46702;48.370;10.794;2023-04-25T08:33:37;3.53;;;1.90;;
60867;SDS011;46702;48.370;10.794;2023-04-25T08:36:03;2.70;;;1.80;;
60867;SDS011;46702;48.370;10.794;2023-04-25T08:38:28;4.68;;;1.38;;
60867;SDS011;46702;48.370;10.794;2023-04-25T08:40:54;3.15;;;2.03;;
60867;SDS011;46702;48.370;10.794;2023-04-25T08:43:22;1.77;;;1.67;;
60867;SDS011;46702;48.370;10.794;2023-04-25T08:45:48;3.03;;;1.55;;
60867;SDS011;46702;48.370;10.794;2023-04-25T08:48:15;4.90;;;1.63;;
60867;SDS011;46702;48.370;10.794;2023-04-25T08:50:52;1.80;;;1.70;;
60867;SDS011;46702;48.370;10.794;2023-04-25T08:53:25;3.65;;;1.80;;
60867;SDS011;46702;48.370;10.794;2023-04-25T08:55:55;4.07;;;1.92;;
60867;SDS011;46702;48.370;10.794;2023-04-25T08:58:21;2.97;;;1.63;;
60867;SDS011;46702;48.370;10.794;2023-04-25T09:00:48;3.53;;;1.92;;
60867;SDS011;46702;48.370;10.794;2023-04-25T09:03:15;3.90;;;1.45;;
60867;SDS011;46702;48.370;10.794;2023-04-25T09:05:41;1.90;;;1.42;;
60867;SDS011;46702;48.370;10.794;2023-04-25T09:08:07;2.95;;;1.58;;
60867;SDS011;46702;48.370;10.794;2023-04-25T09:10:33;3.22;;;1.90;;
60867;SDS011;46702;48.370;10.794;2023-04-25T09:13:05;2.00;;;1.90;;
60867;SDS011;46702;48.370;10.794;2023-04-25T09:15:48;2.97;;;2.00;;
60867;SDS011;46702;48.370;10.794;2023-04-25T09:21:05;2.17;;;1.95;;
60867;SDS011;46702;48.370;10.794;2023-04-25T09:23:38;1.92;;;1.83;;
60867;SDS011;46702;48.370;10.794;2023-04-25T09:26:09;2.35;;;1.40;;
60867;SDS011;46702;48.370;10.794;2023-04-25T09:28:34;3.00;;;1.77;;
60867;SDS011;46702;48.370;10.794;2023-04-25T09:31:01;2.65;;;1.70;;
60867;SDS011;46702;48.370;10.794;2023-04-25T09:33:30;3.25;;;1.90;;
60867;SDS011;46702;48.370;10.794;2023-04-25T09:36:15;4.53;;;1.92;;
60867;SDS011;46702;48.370;10.794;2023-04-25T09:38:41;1.55;;;1.45;;
60867;SDS011;46702;48.370;10.794;2023-04-25T09:41:08;2.30;;;1.63;;
60867;SDS011;46702;48.370;10.794;2023-04-25T09:43:35;2.05;;;1.70;;
60867;SDS011;46702;48.370;10.794;2023-04-25T09:46:02;2.40;;;1.90;;
60867;SDS011;46702;48.370;10.794;2023-04-25T09:48:28;2.63;;;1.80;;
60867;SDS011;46702;48.370;10.794;2023-04-25T09:51:03;1.55;;;1.45;;
60867;SDS011;46702;48.370;10.794;2023-04-25T09:53:29;1.98;;;1.83;;
60867;SDS011;46702;48.370;10.794;2023-04-25T09:55:55;1.50;;;1.40;;
60867;SDS011;46702;48.370;10.794;2023-04-25T09:58:21;1.17;;;1.13;;
60867;SDS011;46702;48.370;10.794;2023-04-25T10:00:50;1.17;;;1.08;;
60867;SDS011;46702;48.370;10.794;2023-04-25T10:03:17;1.38;;;1.27;;
60867;SDS011;46702;48.370;10.794;2023-04-25T10:05:43;3.30;;;1.42;;
60867;SDS011;46702;48.370;10.794;2023-04-25T10:08:09;1.20;;;1.10;;
60867;SDS011;46702;48.370;10.794;2023-04-25T10:10:36;1.15;;;1.08;;
60867;SDS011;46702;48.370;10.794;2023-04-25T10:13:04;1.55;;;1.02;;
60867;SDS011;46702;48.370;10.794;2023-04-25T10:15:32;1.38;;;1.30;;
60867;SDS011;46702;48.370;10.794;2023-04-25T10:18:00;1.10;;;1.00;;
60867;SDS011;46702;48.370;10.794;2023-04-25T10:20:26;1.27;;;1.17;;
60867;SDS011;46702;48.370;10.794;2023-04-25T10:22:52;1.40;;;1.00;;
60867;SDS011;46702;48.370;10.794;2023-04-25T10:25:21;1.30;;;1.00;;
60867;SDS011;46702;48.370;10.794;2023-04-25T10:27:50;1.60;;;1.50;;
60867;SDS011;46702;48.370;10.794;2023-04-25T10:30:17;0.90;;;0.90;;
60867;SDS011;46702;48.370;10.794;2023-04-25T10:32:43;1.05;;;1.05;;
60867;SDS011;46702;48.370;10.794;2023-04-25T10:35:11;2.30;;;1.10;;
60867;SDS011;46702;48.370;10.794;2023-04-25T10:40:28;2.80;;;1.20;;
60867;SDS011;46702;48.370;10.794;2023-04-25T10:42:54;1.55;;;1.45;;
60867;SDS011;46702;48.370;10.794;2023-04-25T10:47:48;1.60;;;1.33;;
60867;SDS011;46702;48.370;10.794;2023-04-25T10:50:14;1.50;;;1.40;;
60867;SDS011;46702;48.370;10.794;2023-04-25T10:52:41;1.58;;;1.48;;
60867;SDS011;46702;48.370;10.794;2023-04-25T10:55:07;1.77;;;1.30;;
60867;SDS011;46702;48.370;10.794;2023-04-25T10:57:36;1.55;;;1.20;;
60867;SDS011;46702;48.370;10.794;2023-04-25T11:00:12;1.60;;;1.50;;
60867;SDS011;46702;48.370;10.794;2023-04-25T11:02:40;2.85;;;1.50;;
60867;SDS011;46702;48.370;10.794;2023-04-25T11:07:59;1.98;;;1.88;;
60867;SDS011;46702;48.370;10.794;2023-04-25T11:10:26;2.17;;;1.98;;
60867;SDS011;46702;48.370;10.794;2023-04-25T11:12:54;2.05;;;1.88;;
60867;SDS011;46702;48.370;10.794;2023-04-25T11:15:20;1.85;;;1.65;;
60867;SDS011;46702;48.370;10.794;2023-04-25T11:17:46;3.60;;;2.83;;
60867;SDS011;46702;48.370;10.794;2023-04-25T11:20:12;1.73;;;1.48;;
60867;SDS011;46702;48.370;10.794;2023-04-25T11:22:39;2.60;;;1.50;;
60867;SDS011;46702;48.370;10.794;2023-04-25T11:25:08;1.35;;;1.25;;
60867;SDS011;46702;48.370;10.794;2023-04-25T11:27:48;1.08;;;1.00;;
60867;SDS011;46702;48.370;10.794;2023-04-25T11:30:26;1.30;;;1.20;;
60867;SDS011;46702;48.370;10.794;2023-04-25T11:32:53;1.48;;;1.35;;
60867;SDS011;46702;48.370;10.794;2023-04-25T11:35:19;1.50;;;1.40;;
60867;SDS011;46702;48.370;10.794;2023-04-25T11:37:47;0.85;;;0.85;;
60867;SDS011;46702;48.370;10.794;2023-04-25T11:40:14;1.75;;;1.40;;
60867;SDS011;46702;48.370;10.794;2023-04-25T11:42:43;1.40;;;1.30;;
60867;SDS011;46702;48.370;10.794;2023-04-25T11:45:11;1.65;;;1.35;;
60867;SDS011;46702;48.370;10.794;2023-04-25T11:47:37;1.88;;;1.40;;
60867;SDS011;46702;48.370;10.794;2023-04-25T11:50:03;2.05;;;1.38;;
60867;SDS011;46702;48.370;10.794;2023-04-25T11:55:10;1.75;;;1.50;;
60867;SDS011;46702;48.370;10.794;2023-04-25T11:57:39;1.30;;;1.20;;
60867;SDS011;46702;48.370;10.794;2023-04-25T12:00:12;2.05;;;1.90;;
60867;SDS011;46702;48.370;10.794;2023-04-25T12:02:44;3.30;;;2.00;;
60867;SDS011;46702;48.370;10.794;2023-04-25T12:05:16;1.20;;;1.20;;
60867;SDS011;46702;48.370;10.794;2023-04-25T12:07:41;2.13;;;1.80;;
60867;SDS011;46702;48.370;10.794;2023-04-25T12:12:34;1.52;;;1.45;;
60867;SDS011;46702;48.370;10.794;2023-04-25T12:17:49;1.60;;;1.38;;
60867;SDS011;46702;48.370;10.794;2023-04-25T12:20:17;1.85;;;1.45;;
60867;SDS011;46702;48.370;10.794;2023-04-25T12:22:45;1.00;;;1.00;;
60867;SDS011;46702;48.370;10.794;2023-04-25T12:25:13;1.20;;;1.10;;
60867;SDS011;46702;48.370;10.794;2023-04-25T12:28:17;1.48;;;1.17;;
60867;SDS011;46702;48.370;10.794;2023-04-25T12:33:35;1.00;;;1.00;;
60867;SDS011;46702;48.370;10.794;2023-04-25T12:36:02;2.22;;;1.20;;
60867;SDS011;46702;48.370;10.794;2023-04-25T12:38:35;1.00;;;1.00;;
60867;SDS011;46702;48.370;10.794;2023-04-25T12:41:02;1.20;;;1.10;;
60867;SDS011;46702;48.370;10.794;2023-04-25T12:43:28;1.90;;;1.80;;
60867;SDS011;46702;48.370;10.794;2023-04-25T12:45:54;1.05;;;1.05;;
60867;SDS011;46702;48.370;10.794;2023-04-25T12:48:20;1.05;;;0.95;;
60867;SDS011;46702;48.370;10.794;2023-04-25T12:50:47;0.90;;;0.90;;
60867;SDS011;46702;48.370;10.794;2023-04-25T12:53:23;0.98;;;0.98;;
60867;SDS011;46702;48.370;10.794;2023-04-25T12:55:49;1.75;;;1.40;;
60867;SDS011;46702;48.370;10.794;2023-04-25T12:58:16;1.10;;;1.10;;
60867;SDS011;46702;48.370;10.794;2023-04-25T13:00:43;1.58;;;1.13;;
60867;SDS011;46702;48.370;10.794;2023-04-25T13:03:08;2.00;;;1.50;;
60867;SDS011;46702;48.370;10.794;2023-04-25T13:05:36;1.90;;;1.80;;
60867;SDS011;46702;48.370;10.794;2023-04-25T13:08:02;1.20;;;1.10;;
60867;SDS011;46702;48.370;10.794;2023-04-25T13:10:27;1.23;;;1.23;;
60867;SDS011;46702;48.370;10.794;2023-04-25T13:12:53;1.90;;;1.80;;
60867;SDS011;46702;48.370;10.794;2023-04-25T13:15:19;1.52;;;1.42;;
60867;SDS011;46702;48.370;10.794;2023-04-25T13:17:44;1.08;;;1.08;;
60867;SDS011;46702;48.370;10.794;2023-04-25T13:20:10;1.33;;;1.25;;
60867;SDS011;46702;48.370;10.794;2023-04-25T13:22:39;1.42;;;1.30;;
60867;SDS011;46702;48.370;10.794;2023-04-25T13:25:06;1.15;;;1.15;;
60867;SDS011;46702;48.370;10.794;2023-04-25T13:27:32;1.60;;;1.40;;
60867;SDS011;46702;48.370;10.794;2023-04-25T13:30:00;1.92;;;1.77;;
60867;SDS011;46702;48.370;10.794;2023-04-25T13:32:35;1.70;;;1.60;;
60867;SDS011;46702;48.370;10.794;2023-04-25T13:35:02;2.88;;;1.40;;
60867;SDS011;46702;48.370;10.794;2023-04-25T13:37:29;2.25;;;2.15;;
60867;SDS011;46702;48.370;10.794;2023-04-25T13:39:57;2.17;;;1.60;;
60867;SDS011;46702;48.370;10.794;2023-04-25T13:42:24;1.88;;;1.55;;
60867;SDS011;46702;48.370;10.794;2023-04-25T13:44:50;1.95;;;1.75;;
60867;SDS011;46702;48.370;10.794;2023-04-25T13:47:15;1.40;;;1.30;;
60867;SDS011;46702;48.370;10.794;2023-04-25T13:49:41;1.65;;;1.55;;
60867;SDS011;46702;48.370;10.794;2023-04-25T13:52:06;1.58;;;1.48;;
60867;SDS011;46702;48.370;10.794;2023-04-25T13:54:32;3.08;;;1.60;;
60867;SDS011;46702;48.370;10.794;2023-04-25T13:56:58;1.15;;;1.15;;
60867;SDS011;46702;48.370;10.794;2023-04-25T13:59:25;1.38;;;1.27;;
60867;SDS011;46702;48.370;10.794;2023-04-25T14:01:51;1.77;;;1.35;;
60867;SDS011;46702;48.370;10.794;2023-04-25T14:04:16;1.20;;;1.13;;
60867;SDS011;46702;48.370;10.794;2023-04-25T14:06:42;1.40;;;1.30;;
60867;SDS011;46702;48.370;10.794;2023-04-25T14:09:08;1.73;;;1.63;;
60867;SDS011;46702;48.370;10.794;2023-04-25T14:11:36;1.60;;;1.50;;
60867;SDS011;46702;48.370;10.794;2023-04-25T14:14:01;2.13;;;1.70;;
60867;SDS011;46702;48.370;10.794;2023-04-25T14:16:27;1.75;;;1.65;;
60867;SDS011;46702;48.370;10.794;2023-04-25T14:18:53;3.25;;;1.80;;
60867;SDS011;46702;48.370;10.794;2023-04-25T14:21:19;3.00;;;1.50;;
60867;SDS011;46702;48.370;10.794;2023-04-25T14:23:46;1.70;;;1.60;;
60867;SDS011;46702;48.370;10.794;2023-04-25T14:26:12;1.52;;;1.42;;
60867;SDS011;46702;48.370;10.794;2023-04-25T14:28:37;1.80;;;1.70;;
60867;SDS011;46702;48.370;10.794;2023-04-25T14:31:03;3.42;;;1.80;;
60867;SDS011;46702;48.370;10.794;2023-04-25T14:33:29;2.72;;;2.08;;
60867;SDS011;46702;48.370;10.794;2023-04-25T14:35:55;2.35;;;2.15;;
60867;SDS011;46702;48.370;10.794;2023-04-25T14:38:21;2.85;;;2.03;;
60867;SDS011;46702;48.370;10.794;2023-04-25T14:40:49;2.53;;;2.03;;
60867;SDS011;46702;48.370;10.794;2023-04-25T14:43:15;3.00;;;2.70;;
60867;SDS011;46702;48.370;10.794;2023-04-25T14:45:41;2.80;;;2.50;;
60867;SDS011;46702;48.370;10.794;2023-04-25T14:48:06;3.83;;;2.30;;
60867;SDS011;46702;48.370;10.794;2023-04-25T14:50:32;2.08;;;1.73;;
60867;SDS011;46702;48.370;10.794;2023-04-25T14:52:58;2.38;;;2.00;;
60867;SDS011;46702;48.370;10.794;2023-04-25T14:55:25;1.77;;;1.67;;